Time,TemperatureF,DewpointF,PressureIn,WindDirection,WindDirectionDegrees,WindSpeedMPH,WindSpeedGustMPH,Humidity,HourlyPrecipIn,Conditions,Clouds,dailyrainin,SoftwareType,DateUTC
2013-07-18 00:01:00,79.2,74.6,30.02,SE,138,0.1,3.5,86,0.00,BKN,,0.00,WeatherDisplay:10.37,2013-07-18 04:01:00,
2013-07-18 00:06:00,79.2,74.6,30.02,SE,138,0.0,0.0,86,0.00,BKN,,0.00,WeatherDisplay:10.37,2013-07-18 04:06:00,
2013-07-18 00:12:00,79.2,74.6,30.03,SE,138,0.0,0.0,86,0.00,SCT,,0.00,WeatherDisplay:10.37,2013-07-18 04:12:00,
2013-07-18 00:17:00,79.2,74.6,30.02,SE,138,0.0,0.0,86,0.00,SCT,,0.00,WeatherDisplay:10.37,2013-07-18 04:17:00,
2013-07-18 00:22:00,79.2,74.6,30.02,SE,138,0.0,0.0,86,0.00,SCT,,0.00,WeatherDisplay:10.37,2013-07-18 04:22:00,
2013-07-18 00:27:00,79.2,74.6,30.02,SE,138,0.0,0.0,86,0.00,SCT,,0.00,WeatherDisplay:10.37,2013-07-18 04:27:00,
2013-07-18 00:32:00,79.2,74.3,30.02,SE,138,0.1,0.0,85,0.00,SCT,,0.00,WeatherDisplay:10.37,2013-07-18 04:32:00,
2013-07-18 00:37:00,79.1,74.5,30.01,SE,139,0.0,0.0,86,0.00,SCT,,0.00,WeatherDisplay:10.37,2013-07-18 04:37:00,
2013-07-18 00:43:00,79.1,74.5,30.01,SE,139,0.1,0.0,86,0.00,SCT,,0.00,WeatherDisplay:10.37,2013-07-18 04:43:00,
2013-07-18 00:48:00,79.0,74.5,30.01,SSE,155,0.5,2.3,86,0.00,SCT,,0.00,WeatherDisplay:10.37,2013-07-18 04:48:00,
2013-07-18 00:53:00,78.9,74.4,30.01,SSE,161,1.8,3.5,86,0.00,SCT,,0.00,WeatherDisplay:10.37,2013-07-18 04:53:00,
2013-07-18 00:58:00,78.9,74.4,30.00,SSE,161,0.0,0.0,86,0.00,SCT,,0.00,WeatherDisplay:10.37,2013-07-18 04:58:00,
2013-07-18 01:04:00,78.9,74.4,30.00,SSE,161,0.0,1.2,86,0.00,SCT,,0.00,WeatherDisplay:10.37,2013-07-18 05:04:00,
2013-07-18 01:09:00,78.9,74.4,30.00,SSE,161,0.1,3.5,86,0.00,SCT,,0.00,WeatherDisplay:10.37,2013-07-18 05:09:00,
2013-07-18 01:14:00,78.8,74.3,30.00,SSE,161,1.4,2.3,86,0.00,SCT,,0.00,WeatherDisplay:10.37,2013-07-18 05:14:00,
2013-07-18 01:19:00,78.7,74.2,30.00,SSE,161,0.0,1.0,86,0.00,SCT,,0.00,WeatherDisplay:10.37,2013-07-18 05:19:00,
2013-07-18 01:24:00,78.7,74.2,30.00,SSE,161,0.0,3.5,86,0.00,SCT,,0.00,WeatherDisplay:10.37,2013-07-18 05:24:00,
2013-07-18 01:29:00,78.6,74.4,30.00,SSE,161,1.3,3.5,87,0.00,SCT,,0.00,WeatherDisplay:10.37,2013-07-18 05:29:00,
2013-07-18 01:34:00,78.4,74.2,30.00,SSE,161,0.0,1.2,87,0.00,SCT,,0.00,WeatherDisplay:10.37,2013-07-18 05:34:00,
2013-07-18 01:39:00,78.3,74.5,30.00,SSE,161,0.0,0.0,88,0.00,SCT,,0.00,WeatherDisplay:10.37,2013-07-18 05:39:00,
2013-07-18 01:44:00,78.1,73.9,30.00,SSE,161,0.0,0.0,87,0.00,SCT,,0.00,WeatherDisplay:10.37,2013-07-18 05:44:00,
2013-07-18 01:50:00,78.1,73.9,30.00,SSE,161,0.0,0.0,87,0.00,SCT,,0.00,WeatherDisplay:10.37,2013-07-18 05:50:00,
2013-07-18 01:55:00,78.0,74.2,30.00,SSE,161,0.0,0.0,88,0.00,SCT,,0.00,WeatherDisplay:10.37,2013-07-18 05:55:00,
2013-07-18 02:00:00,78.1,74.3,30.00,SSE,161,0.0,0.0,88,0.00,SCT,,0.00,WeatherDisplay:10.37,2013-07-18 06:00:00,
2013-07-18 02:05:00,78.0,74.2,30.00,SSE,161,0.0,1.2,88,0.00,SCT,,0.00,WeatherDisplay:10.37,2013-07-18 06:05:00,
2013-07-18 02:10:00,78.0,74.2,30.00,SSE,161,0.0,1.2,88,0.00,SCT,,0.00,WeatherDisplay:10.37,2013-07-18 06:10:00,
2013-07-18 02:15:00,77.9,74.1,30.00,SSE,161,0.0,2.3,88,0.00,SCT,,0.00,WeatherDisplay:10.37,2013-07-18 06:15:00,
2013-07-18 02:20:00,77.8,74.0,30.00,SSE,161,0.1,1.2,88,0.00,SCT,,0.00,WeatherDisplay:10.37,2013-07-18 06:20:00,
2013-07-18 02:25:00,77.7,73.9,30.00,SSE,161,1.5,2.3,88,0.00,SCT,,0.00,WeatherDisplay:10.37,2013-07-18 06:25:00,
2013-07-18 02:30:00,77.6,73.8,29.99,SSE,161,1.3,3.5,88,0.00,SCT,,0.00,WeatherDisplay:10.37,2013-07-18 06:30:00,
2013-07-18 02:36:00,77.5,74.0,29.99,SSE,162,2.3,3.5,89,0.00,SCT,,0.00,WeatherDisplay:10.37,2013-07-18 06:36:00,
2013-07-18 02:41:00,77.3,73.8,29.99,SSE,162,0.0,0.0,89,0.00,SCT,,0.00,WeatherDisplay:10.37,2013-07-18 06:41:00,
2013-07-18 02:46:00,77.2,73.7,29.99,SSE,162,0.0,0.0,89,0.00,SCT,,0.00,WeatherDisplay:10.37,2013-07-18 06:46:00,
2013-07-18 02:51:00,77.1,73.6,30.00,SSE,162,1.3,3.5,89,0.00,SCT,,0.00,WeatherDisplay:10.37,2013-07-18 06:51:00,
2013-07-18 02:56:00,76.9,73.4,29.99,SSE,162,0.6,3.0,89,0.00,SCT,,0.00,WeatherDisplay:10.37,2013-07-18 06:56:00,
2013-07-18 03:01:00,76.8,73.3,29.99,South,178,2.1,3.5,89,0.00,SCT,,0.00,WeatherDisplay:10.37,2013-07-18 07:01:00,
2013-07-18 03:06:00,76.6,73.4,29.99,South,182,0.0,0.0,90,0.00,SCT,,0.00,WeatherDisplay:10.37,2013-07-18 07:06:00,
2013-07-18 03:11:00,76.7,73.5,29.99,South,182,0.0,0.0,90,0.00,SCT,,0.00,WeatherDisplay:10.37,2013-07-18 07:11:00,
2013-07-18 03:16:00,76.5,73.3,29.99,South,182,0.0,1.2,90,0.00,SCT,,0.00,WeatherDisplay:10.37,2013-07-18 07:16:00,
2013-07-18 03:22:00,76.3,73.5,29.99,South,182,0.0,0.0,91,0.00,SCT,,0.00,WeatherDisplay:10.37,2013-07-18 07:22:00,
2013-07-18 03:27:00,76.1,73.3,29.99,South,182,0.1,1.2,91,0.00,SCT,,0.00,WeatherDisplay:10.37,2013-07-18 07:27:00,
2013-07-18 03:32:00,75.9,73.4,29.99,SSE,167,0.1,2.3,92,0.00,SCT,,0.00,WeatherDisplay:10.37,2013-07-18 07:32:00,
2013-07-18 03:37:00,75.6,73.1,29.98,SSE,167,2.0,3.5,92,0.00,SCT,,0.00,WeatherDisplay:10.37,2013-07-18 07:37:00,
2013-07-18 03:42:00,75.4,72.9,29.99,SSE,166,0.0,2.3,92,0.00,SCT,,0.00,WeatherDisplay:10.37,2013-07-18 07:42:00,
2013-07-18 03:47:00,75.3,73.1,29.99,SSE,167,0.0,0.0,93,0.00,SCT,,0.00,WeatherDisplay:10.37,2013-07-18 07:47:00,
2013-07-18 03:52:00,75.2,73.0,29.99,SSE,166,0.0,0.0,93,0.00,SCT,,0.00,WeatherDisplay:10.37,2013-07-18 07:52:00,
2013-07-18 03:57:00,75.1,72.9,29.98,SSE,166,0.0,0.0,93,0.00,SCT,,0.00,WeatherDisplay:10.37,2013-07-18 07:57:00,
2013-07-18 04:03:00,75.1,72.9,29.99,SSE,166,0.0,0.0,93,0.00,SCT,,0.00,WeatherDisplay:10.37,2013-07-18 08:03:00,
2013-07-18 04:08:00,75.1,72.9,29.99,SSE,166,0.0,0.0,93,0.00,SCT,,0.00,WeatherDisplay:10.37,2013-07-18 08:08:00,
2013-07-18 04:13:00,75.2,73.0,29.99,SSE,166,0.0,0.0,93,0.00,SCT,,0.00,WeatherDisplay:10.37,2013-07-18 08:13:00,
2013-07-18 04:18:00,75.3,73.1,29.99,SSE,167,0.8,3.5,93,0.00,SCT,,0.00,WeatherDisplay:10.37,2013-07-18 08:18:00,
2013-07-18 04:23:00,75.3,73.1,29.99,South,169,1.3,3.5,93,0.00,SCT,,0.00,WeatherDisplay:10.37,2013-07-18 08:23:00,
2013-07-18 04:28:00,75.3,72.8,29.99,South,169,0.0,1.2,92,0.00,SCT,,0.00,WeatherDisplay:10.37,2013-07-18 08:28:00,
2013-07-18 04:33:00,75.2,72.7,29.99,South,169,1.0,3.5,92,0.00,SCT,,0.00,WeatherDisplay:10.37,2013-07-18 08:33:00,
2013-07-18 04:38:00,75.2,73.0,29.99,West,273,2.7,5.0,93,0.00,SCT,,0.00,WeatherDisplay:10.37,2013-07-18 08:38:00,
2013-07-18 04:43:00,75.2,73.0,29.99,West,279,0.3,3.0,93,0.00,SCT,,0.00,WeatherDisplay:10.37,2013-07-18 08:43:00,
2013-07-18 04:48:00,75.2,73.0,29.99,West,279,0.1,1.2,93,0.00,SCT,,0.00,WeatherDisplay:10.37,2013-07-18 08:48:00,
2013-07-18 04:54:00,75.2,73.0,29.99,West,279,0.1,1.2,93,0.00,SCT,,0.00,WeatherDisplay:10.37,2013-07-18 08:54:00,
2013-07-18 04:59:00,75.1,72.9,29.99,West,279,0.0,2.3,93,0.00,SCT,,0.00,WeatherDisplay:10.37,2013-07-18 08:59:00,
2013-07-18 05:04:00,75.1,72.9,30.00,WNW,300,2.9,6.9,93,0.00,SCT,,0.00,WeatherDisplay:10.37,2013-07-18 09:04:00,
2013-07-18 05:09:00,75.1,72.9,30.00,NW,304,0.1,1.2,93,0.00,SCT,,0.00,WeatherDisplay:10.37,2013-07-18 09:09:00,
2013-07-18 05:14:00,75.0,72.8,30.00,WNW,288,0.0,3.5,93,0.00,FEW,,0.00,WeatherDisplay:10.37,2013-07-18 09:14:00,
2013-07-18 05:19:00,74.9,72.7,30.00,WNW,296,0.6,3.5,93,0.00,FEW,,0.00,WeatherDisplay:10.37,2013-07-18 09:19:00,
2013-07-18 05:25:00,74.9,72.7,30.00,WNW,298,2.4,4.6,93,0.00,FEW,,0.00,WeatherDisplay:10.37,2013-07-18 09:25:00,
2013-07-18 05:30:00,74.8,72.6,30.00,WNW,298,0.0,0.0,93,0.00,FEW,,0.00,WeatherDisplay:10.37,2013-07-18 09:30:00,
2013-07-18 05:35:00,74.7,72.5,30.00,WNW,298,0.1,1.2,93,0.00,FEW,,0.00,WeatherDisplay:10.37,2013-07-18 09:35:00,
2013-07-18 05:40:00,74.6,72.8,30.00,WNW,298,0.0,0.0,94,0.00,FEW,,0.00,WeatherDisplay:10.37,2013-07-18 09:40:00,
2013-07-18 05:45:00,74.5,72.7,30.00,WNW,298,0.7,2.3,94,0.00,FEW,,0.00,WeatherDisplay:10.37,2013-07-18 09:45:00,
2013-07-18 05:50:00,74.4,72.6,30.00,WNW,298,0.0,0.0,94,0.00,FEW,,0.00,WeatherDisplay:10.37,2013-07-18 09:50:00,
2013-07-18 05:55:00,74.4,72.6,30.00,WNW,298,0.0,0.0,94,0.00,FEW,,0.00,WeatherDisplay:10.37,2013-07-18 09:55:00,
2013-07-18 06:00:00,74.3,72.5,30.00,WNW,298,0.6,2.0,94,0.00,FEW,,0.00,WeatherDisplay:10.37,2013-07-18 10:00:00,
2013-07-18 06:05:00,74.2,72.4,30.01,ENE,69,1.2,2.3,94,0.00,FEW,,0.00,WeatherDisplay:10.37,2013-07-18 10:05:00,
2013-07-18 06:10:00,74.0,72.2,30.01,ENE,77,1.6,3.5,94,0.00,FEW,,0.00,WeatherDisplay:10.37,2013-07-18 10:10:00,
2013-07-18 06:15:00,74.0,72.5,30.01,ENE,78,2.5,3.5,95,0.00,FEW,,0.00,WeatherDisplay:10.37,2013-07-18 10:15:00,
2013-07-18 06:20:00,74.1,72.6,30.01,ENE,78,1.2,3.5,95,0.00,FEW,,0.00,WeatherDisplay:10.37,2013-07-18 10:20:00,
2013-07-18 06:26:00,74.2,72.7,30.01,ENE,78,0.0,0.0,95,0.00,FEW,,0.00,WeatherDisplay:10.37,2013-07-18 10:26:00,
2013-07-18 06:31:00,74.4,72.9,30.01,ENE,78,0.0,0.0,95,0.00,FEW,,0.00,WeatherDisplay:10.37,2013-07-18 10:31:00,
2013-07-18 06:36:00,74.5,73.0,30.01,ENE,65,0.1,2.3,95,0.00,FEW,,0.00,WeatherDisplay:10.37,2013-07-18 10:36:00,
2013-07-18 06:41:00,74.7,73.2,30.01,ENE,61,0.1,1.0,95,0.00,FEW,,0.00,WeatherDisplay:10.37,2013-07-18 10:41:00,
2013-07-18 06:46:00,74.8,73.3,30.01,ENE,57,0.1,1.2,95,0.00,FEW,,0.00,WeatherDisplay:10.37,2013-07-18 10:46:00,
2013-07-18 06:51:00,75.0,73.8,30.01,WNW,300,0.0,3.5,96,0.00,FEW,,0.00,WeatherDisplay:10.37,2013-07-18 10:51:00,
2013-07-18 06:57:00,75.1,73.9,30.02,WNW,300,1.1,2.3,96,0.00,FEW,,0.00,WeatherDisplay:10.37,2013-07-18 10:57:00,
2013-07-18 07:02:00,75.3,73.8,30.02,WNW,293,0.0,1.2,95,0.00,SCT,,0.00,WeatherDisplay:10.37,2013-07-18 11:02:00,
2013-07-18 07:07:00,75.5,74.0,30.02,WNW,294,0.0,0.0,95,0.00,SCT,,0.00,WeatherDisplay:10.37,2013-07-18 11:07:00,
2013-07-18 07:12:00,75.6,74.1,30.02,WNW,294,0.0,0.0,95,0.00,SCT,,0.00,WeatherDisplay:10.37,2013-07-18 11:12:00,
2013-07-18 07:17:00,75.8,74.3,30.02,WNW,294,0.0,0.0,95,0.00,SCT,,0.00,WeatherDisplay:10.37,2013-07-18 11:17:00,
2013-07-18 07:22:00,76.0,74.5,30.02,WNW,294,0.0,1.2,95,0.00,SCT,,0.00,WeatherDisplay:10.37,2013-07-18 11:22:00,
2013-07-18 07:28:00,76.2,74.7,30.02,WNW,294,0.0,0.0,95,0.00,SCT,,0.00,WeatherDisplay:10.37,2013-07-18 11:28:00,
2013-07-18 07:33:00,76.3,74.8,30.02,WNW,297,0.0,0.0,95,0.00,SCT,,0.00,WeatherDisplay:10.37,2013-07-18 11:33:00,
2013-07-18 07:38:00,76.6,75.1,30.02,WNW,297,0.0,0.0,95,0.00,SCT,,0.00,WeatherDisplay:10.37,2013-07-18 11:38:00,
2013-07-18 07:43:00,77.0,75.5,30.02,WNW,297,0.0,0.0,95,0.00,SCT,,0.00,WeatherDisplay:10.37,2013-07-18 11:43:00,
2013-07-18 07:48:00,77.5,76.0,30.02,WNW,290,0.0,1.0,95,0.00,SCT,,0.00,WeatherDisplay:10.37,2013-07-18 11:48:00,
2013-07-18 07:53:00,78.0,76.5,30.02,WNW,288,0.0,0.0,95,0.00,SCT,,0.00,WeatherDisplay:10.37,2013-07-18 11:53:00,
2013-07-18 07:58:00,78.6,76.7,30.02,WNW,288,0.0,1.2,94,0.00,SCT,,0.00,WeatherDisplay:10.37,2013-07-18 11:58:00,
2013-07-18 08:03:00,78.9,76.7,30.02,WNW,288,0.0,0.0,93,0.00,SCT,,0.00,WeatherDisplay:10.37,2013-07-18 12:03:00,
2013-07-18 08:08:00,79.4,76.9,30.02,NW,313,0.6,3.5,92,0.00,SCT,,0.00,WeatherDisplay:10.37,2013-07-18 12:08:00,
2013-07-18 08:14:00,79.9,77.0,30.02,WNW,298,1.3,3.0,91,0.00,CLR,,0.00,WeatherDisplay:10.37,2013-07-18 12:14:00,
2013-07-18 08:19:00,80.4,77.5,30.02,NNW,348,2.8,4.6,91,0.00,CLR,,0.00,WeatherDisplay:10.37,2013-07-18 12:19:00,
2013-07-18 08:24:00,80.6,77.1,30.02,West,279,4.2,6.9,89,0.00,CLR,,0.00,WeatherDisplay:10.37,2013-07-18 12:24:00,
2013-07-18 08:29:00,81.0,77.8,30.02,North,350,0.1,2.0,90,0.00,CLR,,0.00,WeatherDisplay:10.37,2013-07-18 12:29:00,
2013-07-18 08:34:00,81.3,77.7,30.03,WNW,288,3.2,5.0,89,0.00,CLR,,0.00,WeatherDisplay:10.37,2013-07-18 12:34:00,
2013-07-18 08:39:00,81.6,77.7,30.02,West,279,3.3,5.8,88,0.00,CLR,,0.00,WeatherDisplay:10.37,2013-07-18 12:39:00,
2013-07-18 08:44:00,82.0,78.1,30.02,NW,323,1.3,3.5,88,0.00,CLR,,0.00,WeatherDisplay:10.37,2013-07-18 12:44:00,
2013-07-18 08:49:00,82.4,78.5,30.02,NW,304,0.0,1.2,88,0.00,CLR,,0.00,WeatherDisplay:10.37,2013-07-18 12:49:00,
2013-07-18 08:54:00,82.8,78.5,30.02,NNW,328,4.3,5.8,87,0.00,CLR,,0.00,WeatherDisplay:10.37,2013-07-18 12:54:00,
2013-07-18 08:59:00,83.0,78.0,30.02,NW,314,2.4,8.1,85,0.00,CLR,,0.00,WeatherDisplay:10.37,2013-07-18 12:59:00,
2013-07-18 09:04:00,83.3,78.3,30.02,NNW,347,3.1,6.0,85,0.00,CLR,,0.00,WeatherDisplay:10.37,2013-07-18 13:04:00,
2013-07-18 09:10:00,83.6,78.6,30.02,WNW,294,4.3,8.1,85,0.00,CLR,,0.00,WeatherDisplay:10.37,2013-07-18 13:10:00,
2013-07-18 09:15:00,83.7,78.7,30.02,NW,325,1.1,3.5,85,0.00,SCT,,0.00,WeatherDisplay:10.37,2013-07-18 13:15:00,
2013-07-18 09:20:00,83.7,78.3,30.02,WNW,286,2.2,5.8,84,0.00,SCT,,0.00,WeatherDisplay:10.37,2013-07-18 13:20:00,
2013-07-18 09:25:00,83.6,77.9,30.02,WNW,289,2.7,4.6,83,0.00,SCT,,0.00,WeatherDisplay:10.37,2013-07-18 13:25:00,
2013-07-18 09:30:00,83.7,78.7,30.02,NW,304,2.5,3.5,85,0.00,SCT,,0.00,WeatherDisplay:10.37,2013-07-18 13:30:00,
2013-07-18 09:35:00,83.9,79.3,30.02,WNW,292,3.2,3.5,86,0.00,SCT,,0.00,WeatherDisplay:10.37,2013-07-18 13:35:00,
2013-07-18 09:40:00,83.9,77.8,30.02,WSW,257,4.3,6.9,82,0.00,SCT,,0.00,WeatherDisplay:10.37,2013-07-18 13:40:00,
2013-07-18 09:45:00,83.7,77.6,30.02,WNW,288,1.9,4.6,82,0.00,SCT,,0.00,WeatherDisplay:10.37,2013-07-18 13:45:00,
2013-07-18 09:50:00,83.8,78.4,30.02,NW,306,3.3,5.8,84,0.00,SCT,,0.00,WeatherDisplay:10.37,2013-07-18 13:50:00,
2013-07-18 09:56:00,83.9,78.5,30.02,NW,315,1.4,3.5,84,0.00,SCT,,0.00,WeatherDisplay:10.37,2013-07-18 13:56:00,
2013-07-18 10:01:00,84.3,78.9,30.02,SW,236,3.9,4.6,84,0.00,SCT,,0.00,WeatherDisplay:10.37,2013-07-18 14:01:00,
2013-07-18 10:06:00,84.6,78.9,30.02,West,270,3.7,6.9,83,0.00,SCT,,0.00,WeatherDisplay:10.37,2013-07-18 14:06:00,
2013-07-18 10:11:00,84.9,78.4,30.02,WNW,300,3.9,5.8,81,0.00,SCT,,0.00,WeatherDisplay:10.37,2013-07-18 14:11:00,
2013-07-18 10:16:00,85.3,79.5,30.01,NW,307,3.9,6.0,83,0.00,SCT,,0.00,WeatherDisplay:10.37,2013-07-18 14:16:00,
2013-07-18 10:21:00,85.5,78.2,30.01,West,261,4.6,5.8,79,0.00,SCT,,0.00,WeatherDisplay:10.37,2013-07-18 14:21:00,
2013-07-18 10:26:00,85.6,78.3,30.01,West,268,2.6,5.8,79,0.00,SCT,,0.00,WeatherDisplay:10.37,2013-07-18 14:26:00,
2013-07-18 10:31:00,85.5,77.5,30.01,WNW,299,2.2,4.6,77,0.00,SCT,,0.00,WeatherDisplay:10.37,2013-07-18 14:31:00,
2013-07-18 10:36:00,85.5,77.9,30.01,WNW,284,3.4,5.8,78,0.00,SCT,,0.00,WeatherDisplay:10.37,2013-07-18 14:36:00,
2013-07-18 10:41:00,85.8,78.9,30.02,West,276,4.2,5.0,80,0.00,SCT,,0.00,WeatherDisplay:10.37,2013-07-18 14:41:00,
2013-07-18 10:47:00,86.1,78.8,30.01,NNW,348,0.0,0.0,79,0.00,SCT,,0.00,WeatherDisplay:10.37,2013-07-18 14:47:00,
2013-07-18 10:52:00,86.6,77.7,30.01,NW,304,1.5,4.6,75,0.00,SCT,,0.00,WeatherDisplay:10.37,2013-07-18 14:52:00,
2013-07-18 10:57:00,86.9,78.8,30.01,WNW,301,0.4,3.5,77,0.00,SCT,,0.00,WeatherDisplay:10.37,2013-07-18 14:57:00,
2013-07-18 11:02:00,87.1,79.0,30.01,West,274,1.4,4.6,77,0.00,BKN,,0.00,WeatherDisplay:10.37,2013-07-18 15:02:00,
2013-07-18 11:07:00,87.1,78.2,30.01,NNW,340,1.5,4.0,75,0.00,BKN,,0.00,WeatherDisplay:10.37,2013-07-18 15:07:00,
2013-07-18 11:12:00,86.9,78.4,30.01,West,259,4.1,7.0,76,0.00,BKN,,0.00,WeatherDisplay:10.37,2013-07-18 15:12:00,
2013-07-18 11:17:00,86.3,78.2,30.01,NW,325,2.7,6.9,77,0.00,BKN,,0.00,WeatherDisplay:10.37,2013-07-18 15:17:00,
2013-07-18 11:22:00,86.3,79.0,30.01,West,277,5.4,9.2,79,0.00,BKN,,0.00,WeatherDisplay:10.37,2013-07-18 15:22:00,
2013-07-18 11:27:00,86.5,79.2,30.01,WNW,293,3.3,5.8,79,0.00,BKN,,0.00,WeatherDisplay:10.37,2013-07-18 15:27:00,
2013-07-18 11:33:00,87.0,78.9,30.01,WNW,290,3.3,4.6,77,0.00,BKN,,0.00,WeatherDisplay:10.37,2013-07-18 15:33:00,
2013-07-18 11:38:00,87.2,79.1,30.01,NW,319,0.7,3.5,77,0.00,BKN,,0.00,WeatherDisplay:10.37,2013-07-18 15:38:00,
2013-07-18 11:43:00,87.7,79.2,30.01,West,275,4.7,6.9,76,0.00,BKN,,0.00,WeatherDisplay:10.37,2013-07-18 15:43:00,
2013-07-18 11:48:00,87.7,78.8,30.00,West,270,4.3,6.9,75,0.00,BKN,,0.00,WeatherDisplay:10.37,2013-07-18 15:48:00,
2013-07-18 11:53:00,87.6,78.3,30.00,WNW,289,0.7,5.8,74,0.00,BKN,,0.00,WeatherDisplay:10.37,2013-07-18 15:53:00,
2013-07-18 11:58:00,87.5,79.4,30.00,NW,310,2.1,3.5,77,0.00,BKN,,0.00,WeatherDisplay:10.37,2013-07-18 15:58:00,
2013-07-18 12:03:00,87.7,80.0,30.00,WNW,290,3.5,5.8,78,0.00,BKN,,0.00,WeatherDisplay:10.37,2013-07-18 16:03:00,
2013-07-18 12:08:00,87.8,78.1,30.00,WNW,295,4.1,5.0,73,0.00,BKN,,0.00,WeatherDisplay:10.37,2013-07-18 16:08:00,
2013-07-18 12:13:00,88.0,79.9,30.00,West,263,6.1,9.2,77,0.00,SCT,,0.00,WeatherDisplay:10.37,2013-07-18 16:13:00,
2013-07-18 12:18:00,87.9,78.6,30.00,WNW,299,4.3,6.9,74,0.00,SCT,,0.00,WeatherDisplay:10.37,2013-07-18 16:18:00,
2013-07-18 12:24:00,87.8,78.5,30.00,NW,320,2.7,5.0,74,0.00,SCT,,0.00,WeatherDisplay:10.37,2013-07-18 16:24:00,
2013-07-18 12:29:00,88.2,79.7,29.99,NW,323,5.4,10.4,76,0.00,SCT,,0.00,WeatherDisplay:10.37,2013-07-18 16:29:00,
2013-07-18 12:34:00,87.9,76.0,29.99,West,280,8.1,13.8,68,0.00,SCT,,0.00,WeatherDisplay:10.37,2013-07-18 16:34:00,
2013-07-18 12:39:00,87.8,78.1,29.99,West,271,5.4,6.9,73,0.00,SCT,,0.00,WeatherDisplay:10.37,2013-07-18 16:39:00,
2013-07-18 12:44:00,87.8,77.6,29.99,WNW,284,4.2,11.5,72,0.00,SCT,,0.00,WeatherDisplay:10.37,2013-07-18 16:44:00,
2013-07-18 12:49:00,88.0,77.0,29.99,West,261,7.1,11.5,70,0.00,SCT,,0.00,WeatherDisplay:10.37,2013-07-18 16:49:00,
2013-07-18 12:55:00,88.2,78.0,29.99,WSW,257,7.9,15.0,72,0.00,SCT,,0.00,WeatherDisplay:10.37,2013-07-18 16:55:00,
2013-07-18 13:00:00,88.4,76.9,29.99,West,266,5.0,11.0,69,0.00,SCT,,0.00,WeatherDisplay:10.37,2013-07-18 17:00:00,
2013-07-18 13:05:00,88.2,75.9,29.99,West,265,5.6,10.4,67,0.00,SCT,,0.00,WeatherDisplay:10.37,2013-07-18 17:05:00,
2013-07-18 13:10:00,87.9,77.3,29.99,West,267,5.2,11.5,71,0.00,SCT,,0.00,WeatherDisplay:10.37,2013-07-18 17:10:00,
2013-07-18 13:15:00,87.1,76.5,29.99,West,273,4.5,9.2,71,0.00,BKN,,0.00,WeatherDisplay:10.37,2013-07-18 17:15:00,
2013-07-18 13:20:00,86.4,76.3,29.99,WNW,301,7.5,11.5,72,0.00,BKN,,0.00,WeatherDisplay:10.37,2013-07-18 17:20:00,
2013-07-18 13:25:00,86.5,76.8,29.99,WNW,284,3.7,6.9,73,0.00,BKN,,0.00,WeatherDisplay:10.37,2013-07-18 17:25:00,
2013-07-18 13:30:00,87.0,76.5,29.99,WNW,283,8.8,13.0,71,0.00,BKN,,0.00,WeatherDisplay:10.37,2013-07-18 17:30:00,
2013-07-18 13:35:00,87.2,76.6,29.99,WSW,254,6.0,10.4,71,0.00,BKN,,0.00,WeatherDisplay:10.37,2013-07-18 17:35:00,
2013-07-18 13:40:00,87.9,76.5,29.99,WSW,244,8.3,10.4,69,0.00,BKN,,0.00,WeatherDisplay:10.37,2013-07-18 17:40:00,
2013-07-18 13:45:00,88.6,78.8,29.98,West,278,6.2,6.9,73,0.00,BKN,,0.00,WeatherDisplay:10.37,2013-07-18 17:45:00,
2013-07-18 13:51:00,88.9,76.1,29.98,West,274,8.8,11.5,66,0.00,BKN,,0.00,WeatherDisplay:10.37,2013-07-18 17:51:00,
2013-07-18 13:56:00,89.3,78.2,29.98,West,265,4.4,11.5,70,0.00,BKN,,0.00,WeatherDisplay:10.37,2013-07-18 17:56:00,
2013-07-18 14:01:00,89.6,76.7,29.98,West,277,6.1,9.2,66,0.00,BKN,,0.00,WeatherDisplay:10.37,2013-07-18 18:01:00,
2013-07-18 14:06:00,89.9,78.4,29.97,WNW,297,5.0,6.9,69,0.00,FEW,,0.00,WeatherDisplay:10.37,2013-07-18 18:06:00,
2013-07-18 14:11:00,89.8,76.9,29.97,West,264,8.4,11.5,66,0.00,FEW,,0.00,WeatherDisplay:10.37,2013-07-18 18:11:00,
2013-07-18 14:16:00,89.7,76.4,29.97,West,270,6.8,12.0,65,0.00,FEW,,0.00,WeatherDisplay:10.37,2013-07-18 18:16:00,
2013-07-18 14:21:00,89.7,76.4,29.97,West,274,7.5,12.7,65,0.00,FEW,,0.00,WeatherDisplay:10.37,2013-07-18 18:21:00,
2013-07-18 14:26:00,89.7,77.3,29.97,West,276,8.0,11.5,67,0.00,FEW,,0.00,WeatherDisplay:10.37,2013-07-18 18:26:00,
2013-07-18 14:31:00,90.1,77.7,29.96,West,281,6.1,11.5,67,0.00,FEW,,0.00,WeatherDisplay:10.37,2013-07-18 18:31:00,
2013-07-18 14:36:00,90.5,77.1,29.96,West,263,4.5,5.8,65,0.00,FEW,,0.00,WeatherDisplay:10.37,2013-07-18 18:36:00,
2013-07-18 14:41:00,90.7,79.1,29.96,WNW,283,3.3,4.6,69,0.00,FEW,,0.00,WeatherDisplay:10.37,2013-07-18 18:41:00,
2013-07-18 14:46:00,91.0,78.1,29.95,WNW,289,2.3,4.6,66,0.00,FEW,,0.00,WeatherDisplay:10.37,2013-07-18 18:46:00,
2013-07-18 14:51:00,91.4,79.3,29.96,WNW,287,6.3,10.0,68,0.00,FEW,,0.00,WeatherDisplay:10.37,2013-07-18 18:51:00,
2013-07-18 14:57:00,90.9,76.6,29.96,NW,307,2.0,4.6,63,0.00,FEW,,0.00,WeatherDisplay:10.37,2013-07-18 18:57:00,
2013-07-18 15:02:00,90.4,77.5,29.96,North,355,1.8,4.6,66,0.00,FEW,,0.00,WeatherDisplay:10.37,2013-07-18 19:02:00,
2013-07-18 15:07:00,90.1,79.0,29.96,NW,306,0.1,1.2,70,0.00,FEW,,0.00,WeatherDisplay:10.37,2013-07-18 19:07:00,
2013-07-18 15:12:00,90.1,78.6,29.95,WNW,295,2.5,6.9,69,0.00,SCT,,0.00,WeatherDisplay:10.37,2013-07-18 19:12:00,
2013-07-18 15:17:00,90.3,80.0,29.95,NNW,339,1.4,3.5,72,0.00,SCT,,0.00,WeatherDisplay:10.37,2013-07-18 19:17:00,
2013-07-18 15:22:00,90.6,79.5,29.95,North,349,4.1,6.9,70,0.00,SCT,,0.00,WeatherDisplay:10.37,2013-07-18 19:22:00,
2013-07-18 15:27:00,91.2,80.5,29.95,NNW,329,3.8,8.1,71,0.00,SCT,,0.00,WeatherDisplay:10.37,2013-07-18 19:27:00,
2013-07-18 15:32:00,91.9,80.3,29.95,West,266,2.1,6.9,69,0.00,SCT,,0.00,WeatherDisplay:10.37,2013-07-18 19:32:00,
2013-07-18 15:37:00,92.4,80.7,29.95,WSW,243,7.1,12.7,69,0.00,SCT,,0.00,WeatherDisplay:10.37,2013-07-18 19:37:00,
2013-07-18 15:42:00,92.4,79.8,29.95,WNW,289,3.2,5.8,67,0.00,SCT,,0.00,WeatherDisplay:10.37,2013-07-18 19:42:00,
2013-07-18 15:48:00,92.0,79.5,29.95,West,273,4.4,11.5,67,0.00,SCT,,0.00,WeatherDisplay:10.37,2013-07-18 19:48:00,
2013-07-18 15:53:00,91.6,77.2,29.95,NW,313,4.7,7.0,63,0.00,SCT,,0.00,WeatherDisplay:10.37,2013-07-18 19:53:00,
2013-07-18 15:58:00,91.3,79.3,29.95,NNW,342,4.2,9.2,68,0.00,SCT,,0.00,WeatherDisplay:10.37,2013-07-18 19:58:00,
2013-07-18 16:03:00,91.3,79.3,29.94,West,279,3.2,11.0,68,0.00,SCT,,0.00,WeatherDisplay:10.37,2013-07-18 20:03:00,
2013-07-18 16:08:00,91.1,77.7,29.94,West,281,1.6,3.5,65,0.00,SCT,,0.00,WeatherDisplay:10.37,2013-07-18 20:08:00,
2013-07-18 16:13:00,90.2,76.4,29.93,WNW,297,5.1,10.4,64,0.00,SCT,,0.00,WeatherDisplay:10.37,2013-07-18 20:13:00,
2013-07-18 16:18:00,89.6,77.6,29.93,WNW,286,3.4,5.0,68,0.00,SCT,,0.00,WeatherDisplay:10.37,2013-07-18 20:18:00,
2013-07-18 16:23:00,89.6,78.5,29.93,West,271,2.5,4.6,70,0.00,SCT,,0.00,WeatherDisplay:10.37,2013-07-18 20:23:00,
2013-07-18 16:28:00,89.9,76.1,29.93,NW,307,3.3,11.5,64,0.00,SCT,,0.00,WeatherDisplay:10.37,2013-07-18 20:28:00,
2013-07-18 16:33:00,90.1,77.7,29.93,West,275,6.0,9.0,67,0.00,SCT,,0.00,WeatherDisplay:10.37,2013-07-18 20:33:00,
2013-07-18 16:39:00,90.4,77.0,29.93,NW,306,1.0,4.6,65,0.00,SCT,,0.00,WeatherDisplay:10.37,2013-07-18 20:39:00,
2013-07-18 16:44:00,90.6,76.7,29.92,WNW,286,3.5,5.0,64,0.00,SCT,,0.00,WeatherDisplay:10.37,2013-07-18 20:44:00,
2013-07-18 16:49:00,90.6,76.7,29.92,West,261,1.5,5.8,64,0.00,SCT,,0.00,WeatherDisplay:10.37,2013-07-18 20:49:00,
2013-07-18 16:54:00,90.5,78.0,29.92,WNW,284,2.2,6.9,67,0.00,SCT,,0.00,WeatherDisplay:10.37,2013-07-18 20:54:00,
2013-07-18 16:59:00,90.6,78.1,29.92,West,271,5.9,10.4,67,0.00,SCT,,0.00,WeatherDisplay:10.37,2013-07-18 20:59:00,
2013-07-18 17:04:00,90.7,77.3,29.92,WNW,289,2.7,9.2,65,0.00,SCT,,0.00,WeatherDisplay:10.37,2013-07-18 21:04:00,
2013-07-18 17:09:00,90.9,76.1,29.92,NW,310,3.1,6.9,62,0.00,SCT,,0.00,WeatherDisplay:10.37,2013-07-18 21:09:00,
2013-07-18 17:14:00,90.7,77.8,29.92,WNW,292,3.3,5.8,66,0.00,SCT,,0.00,WeatherDisplay:10.37,2013-07-18 21:14:00,
2013-07-18 17:20:00,90.6,77.7,29.92,WNW,292,0.0,1.2,66,0.00,SCT,,0.00,WeatherDisplay:10.37,2013-07-18 21:20:00,
2013-07-18 17:25:00,91.0,79.4,29.91,WNW,291,0.0,0.0,69,0.00,BKN,,0.00,WeatherDisplay:10.37,2013-07-18 21:25:00,
2013-07-18 17:30:00,91.6,79.5,29.91,NW,309,0.1,1.2,68,0.00,BKN,,0.00,WeatherDisplay:10.37,2013-07-18 21:30:00,
2013-07-18 17:35:00,92.0,78.5,29.91,West,279,3.8,6.9,65,0.00,BKN,,0.00,WeatherDisplay:10.37,2013-07-18 21:35:00,
2013-07-18 17:40:00,91.6,76.7,29.91,West,279,6.1,10.4,62,0.00,BKN,,0.00,WeatherDisplay:10.37,2013-07-18 21:40:00,
2013-07-18 17:45:00,91.1,76.7,29.92,WNW,284,3.4,6.0,63,0.00,BKN,,0.00,WeatherDisplay:10.37,2013-07-18 21:45:00,
2013-07-18 17:50:00,90.5,77.1,29.92,WNW,289,3.8,5.8,65,0.00,BKN,,0.00,WeatherDisplay:10.37,2013-07-18 21:50:00,
2013-07-18 17:55:00,90.0,76.6,29.92,West,273,1.9,4.6,65,0.00,BKN,,0.00,WeatherDisplay:10.37,2013-07-18 21:55:00,
2013-07-18 18:00:00,89.5,78.0,29.92,WNW,286,4.9,6.9,69,0.00,BKN,,0.00,WeatherDisplay:10.37,2013-07-18 22:00:00,
2013-07-18 18:05:00,89.1,77.6,29.93,West,281,3.2,4.6,69,0.00,BKN,,0.00,WeatherDisplay:10.37,2013-07-18 22:05:00,
2013-07-18 18:10:00,88.7,76.3,29.93,West,271,6.0,7.0,67,0.00,BKN,,0.00,WeatherDisplay:10.37,2013-07-18 22:10:00,
2013-07-18 18:15:00,88.3,76.8,29.93,WSW,250,5.2,9.0,69,0.00,BKN,,0.00,WeatherDisplay:10.37,2013-07-18 22:15:00,
2013-07-18 18:21:00,88.0,76.5,29.93,West,267,4.8,6.9,69,0.00,BKN,,0.00,WeatherDisplay:10.37,2013-07-18 22:21:00,
2013-07-18 18:26:00,87.8,76.8,29.94,West,268,4.3,6.9,70,0.00,BKN,,0.00,WeatherDisplay:10.37,2013-07-18 22:26:00,
2013-07-18 18:31:00,87.6,77.0,29.94,WNW,286,3.2,4.6,71,0.00,BKN,,0.00,WeatherDisplay:10.37,2013-07-18 22:31:00,
2013-07-18 18:36:00,87.5,76.5,29.94,NW,317,1.3,3.5,70,0.00,BKN,,0.00,WeatherDisplay:10.37,2013-07-18 22:36:00,
2013-07-18 18:41:00,87.6,77.0,29.94,NW,304,2.2,3.5,71,0.00,BKN,,0.00,WeatherDisplay:10.37,2013-07-18 22:41:00,
2013-07-18 18:47:00,87.8,77.2,29.94,WNW,290,1.9,4.6,71,0.00,BKN,,0.00,WeatherDisplay:10.37,2013-07-18 22:47:00,
2013-07-18 18:52:00,88.0,77.8,29.94,WNW,297,3.1,4.6,72,0.00,BKN,,0.00,WeatherDisplay:10.37,2013-07-18 22:52:00,
2013-07-18 18:57:00,88.6,79.2,29.93,WNW,284,3.0,6.9,74,0.00,BKN,,0.00,WeatherDisplay:10.37,2013-07-18 22:57:00,
2013-07-18 19:02:00,88.9,78.3,29.93,WNW,289,4.2,5.8,71,0.00,BKN,,0.00,WeatherDisplay:10.37,2013-07-18 23:02:00,
2013-07-18 19:07:00,88.9,77.0,29.93,WNW,284,3.1,4.6,68,0.00,BKN,,0.00,WeatherDisplay:10.37,2013-07-18 23:07:00,
2013-07-18 19:12:00,88.8,77.7,29.93,WNW,282,3.0,4.0,70,0.00,BKN,,0.00,WeatherDisplay:10.37,2013-07-18 23:12:00,
2013-07-18 19:17:00,88.8,77.3,29.93,WNW,293,3.5,5.8,69,0.00,BKN,,0.00,WeatherDisplay:10.37,2013-07-18 23:17:00,
2013-07-18 19:23:00,88.6,76.7,29.94,WNW,283,3.8,3.8,68,0.00,BKN,,0.00,WeatherDisplay:10.37,2013-07-18 23:23:00,
2013-07-18 19:28:00,88.3,76.8,29.94,WNW,282,2.7,3.5,69,0.00,BKN,,0.00,WeatherDisplay:10.37,2013-07-18 23:28:00,
2013-07-18 19:33:00,87.8,76.4,29.94,WNW,296,3.2,5.0,69,0.00,BKN,,0.00,WeatherDisplay:10.37,2013-07-18 23:33:00,
2013-07-18 19:38:00,87.3,75.9,29.94,WNW,288,1.5,3.5,69,0.00,BKN,,0.00,WeatherDisplay:10.37,2013-07-18 23:38:00,
2013-07-18 19:43:00,87.0,75.6,29.93,WNW,288,2.3,3.5,69,0.00,BKN,,0.00,WeatherDisplay:10.37,2013-07-18 23:43:00,
2013-07-18 19:49:00,86.8,75.8,29.93,WNW,288,2.7,3.5,70,0.00,BKN,,0.00,WeatherDisplay:10.37,2013-07-18 23:49:00,
2013-07-18 19:54:00,86.5,75.5,29.93,WNW,288,0.0,1.2,70,0.00,BKN,,0.00,WeatherDisplay:10.37,2013-07-18 23:54:00,
2013-07-18 19:59:00,86.2,75.3,29.93,WNW,288,0.0,0.0,70,0.00,BKN,,0.00,WeatherDisplay:10.37,2013-07-18 23:59:00,
2013-07-18 20:04:00,85.8,75.3,29.93,WNW,288,0.0,1.2,71,0.00,BKN,,0.00,WeatherDisplay:10.37,2013-07-19 00:04:00,
2013-07-18 20:09:00,85.5,75.0,29.93,WNW,289,0.0,1.0,71,0.00,BKN,,0.00,WeatherDisplay:10.37,2013-07-19 00:09:00,
2013-07-18 20:14:00,85.1,74.2,29.93,WNW,290,0.9,3.5,70,0.00,BKN,,0.00,WeatherDisplay:10.37,2013-07-19 00:14:00,
2013-07-18 20:20:00,84.9,74.0,29.93,WNW,299,2.6,3.5,70,0.00,BKN,,0.00,WeatherDisplay:10.37,2013-07-19 00:20:00,
2013-07-18 20:25:00,84.8,74.3,29.93,WNW,298,0.0,1.2,71,0.00,BKN,,0.00,WeatherDisplay:10.37,2013-07-19 00:25:00,
2013-07-18 20:30:00,84.5,74.9,29.94,WNW,298,0.0,0.0,73,0.00,BKN,,0.00,WeatherDisplay:10.37,2013-07-19 00:30:00,
2013-07-18 20:35:00,84.1,75.3,29.93,SSW,205,1.1,3.5,75,0.00,BKN,,0.00,WeatherDisplay:10.37,2013-07-19 00:35:00,
2013-07-18 20:40:00,83.7,74.9,29.94,SSW,200,0.4,3.5,75,0.00,BKN,,0.00,WeatherDisplay:10.37,2013-07-19 00:40:00,
2013-07-18 20:45:00,83.4,75.0,29.93,SSW,213,2.5,3.5,76,0.00,BKN,,0.00,WeatherDisplay:10.37,2013-07-19 00:45:00,
2013-07-18 20:50:00,83.0,74.6,29.93,SSW,195,0.7,0.0,76,0.00,BKN,,0.00,WeatherDisplay:10.37,2013-07-19 00:50:00,
2013-07-18 20:55:00,82.8,75.2,29.93,SSW,207,0.1,0.0,78,0.00,BKN,,0.00,WeatherDisplay:10.37,2013-07-19 00:55:00,
2013-07-18 21:00:00,82.4,74.8,29.92,South,185,0.7,3.0,78,0.00,BKN,,0.00,WeatherDisplay:10.37,2013-07-19 01:00:00,
2013-07-18 21:05:00,82.1,74.9,29.93,SSE,166,0.0,1.2,79,0.00,BKN,,0.00,WeatherDisplay:10.37,2013-07-19 01:05:00,
2013-07-18 21:11:00,81.7,74.5,29.93,SSE,159,1.0,3.5,79,0.00,BKN,,0.00,WeatherDisplay:10.37,2013-07-19 01:11:00,
2013-07-18 21:16:00,81.3,74.2,29.93,SSW,197,1.4,3.5,79,0.00,BKN,,0.00,WeatherDisplay:10.37,2013-07-19 01:16:00,
2013-07-18 21:21:00,80.9,73.8,29.93,South,183,0.5,2.0,79,0.00,BKN,,0.00,WeatherDisplay:10.37,2013-07-19 01:21:00,
2013-07-18 21:26:00,80.7,74.0,29.94,South,178,1.7,3.5,80,0.00,BKN,,0.00,WeatherDisplay:10.37,2013-07-19 01:26:00,
2013-07-18 21:31:00,80.5,73.8,29.94,South,180,1.6,4.6,80,0.00,BKN,,0.00,WeatherDisplay:10.37,2013-07-19 01:31:00,
2013-07-18 21:36:00,80.3,73.6,29.94,South,184,1.2,3.5,80,0.00,BKN,,0.00,WeatherDisplay:10.37,2013-07-19 01:36:00,
2013-07-18 21:41:00,80.1,73.7,29.94,SSW,201,0.1,3.5,81,0.00,BKN,,0.00,WeatherDisplay:10.37,2013-07-19 01:41:00,
2013-07-18 21:46:00,79.9,73.5,29.94,South,181,1.2,3.5,81,0.00,BKN,,0.00,WeatherDisplay:10.37,2013-07-19 01:46:00,
2013-07-18 21:52:00,79.8,73.4,29.94,SSW,200,0.8,2.3,81,0.00,BKN,,0.00,WeatherDisplay:10.37,2013-07-19 01:52:00,
2013-07-18 21:57:00,79.6,73.3,29.94,South,190,2.0,3.5,81,0.00,BKN,,0.00,WeatherDisplay:10.37,2013-07-19 01:57:00,
2013-07-18 22:02:00,79.5,73.2,29.94,SSW,193,0.6,3.5,81,0.00,BKN,,0.00,WeatherDisplay:10.37,2013-07-19 02:02:00,
2013-07-18 22:07:00,79.4,73.1,29.94,SSE,159,2.6,4.0,81,0.00,BKN,,0.00,WeatherDisplay:10.37,2013-07-19 02:07:00,
2013-07-18 22:12:00,79.3,73.0,29.94,South,190,0.8,5.0,81,0.00,BKN,,0.00,WeatherDisplay:10.37,2013-07-19 02:12:00,
2013-07-18 22:17:00,79.2,72.9,29.93,SSW,198,1.7,5.8,81,0.00,BKN,,0.00,WeatherDisplay:10.37,2013-07-19 02:17:00,
2013-07-18 22:22:00,79.1,72.8,29.93,South,187,1.3,5.0,81,0.00,BKN,,0.00,WeatherDisplay:10.37,2013-07-19 02:22:00,
2013-07-18 22:27:00,79.1,72.8,29.93,South,175,1.8,4.6,81,0.00,BKN,,0.00,WeatherDisplay:10.37,2013-07-19 02:27:00,
2013-07-18 22:32:00,78.9,72.6,29.93,SSE,159,3.2,4.0,81,0.00,BKN,,0.00,WeatherDisplay:10.37,2013-07-19 02:32:00,
2013-07-18 22:38:00,78.8,72.5,29.93,SSE,159,0.3,3.5,81,0.00,BKN,,0.00,WeatherDisplay:10.37,2013-07-19 02:38:00,
2013-07-18 22:43:00,78.8,72.8,29.93,SSE,161,0.0,0.0,82,0.00,BKN,,0.00,WeatherDisplay:10.37,2013-07-19 02:43:00,
2013-07-18 22:48:00,78.7,72.7,29.93,SSE,148,0.0,3.5,82,0.00,BKN,,0.00,WeatherDisplay:10.37,2013-07-19 02:48:00,
2013-07-18 22:53:00,78.7,73.1,29.93,ESE,115,0.0,0.0,83,0.00,BKN,,0.00,WeatherDisplay:10.37,2013-07-19 02:53:00,
2013-07-18 22:58:00,78.5,72.9,29.93,SSE,153,0.0,1.2,83,0.00,BKN,,0.00,WeatherDisplay:10.37,2013-07-19 02:58:00,
2013-07-18 23:03:00,78.3,73.1,29.93,SSE,150,0.0,1.2,84,0.00,SCT,,0.00,WeatherDisplay:10.37,2013-07-19 03:03:00,
2013-07-18 23:08:00,78.2,73.0,29.92,SSE,150,0.9,1.2,84,0.00,SCT,,0.00,WeatherDisplay:10.37,2013-07-19 03:08:00,
2013-07-18 23:09:00,78.2,73.0,29.92,SSE,150,0.1,2.3,84,0.00,SCT,,0.00,WeatherDisplay:10.37,2013-07-19 03:09:00,
2013-07-18 23:14:00,78.1,72.9,29.92,SE,143,2.3,2.3,84,0.00,SCT,,0.00,WeatherDisplay:10.37,2013-07-19 03:14:00,
2013-07-18 23:19:00,78.0,72.8,29.92,SE,143,0.0,0.0,84,0.00,SCT,,0.00,WeatherDisplay:10.37,2013-07-19 03:19:00,
2013-07-18 23:24:00,77.9,73.0,29.92,SE,143,0.0,0.0,85,0.00,SCT,,0.00,WeatherDisplay:10.37,2013-07-19 03:24:00,
2013-07-18 23:29:00,77.7,72.8,29.92,SE,140,0.1,1.2,85,0.00,SCT,,0.00,WeatherDisplay:10.37,2013-07-19 03:29:00,
2013-07-18 23:34:00,77.5,72.6,29.92,SE,140,1.8,3.5,85,0.00,SCT,,0.00,WeatherDisplay:10.37,2013-07-19 03:34:00,
2013-07-18 23:39:00,77.3,72.8,29.92,SE,140,0.0,0.0,86,0.00,SCT,,0.00,WeatherDisplay:10.37,2013-07-19 03:39:00,
2013-07-18 23:44:00,77.3,72.8,29.92,SSE,153,0.2,3.0,86,0.00,SCT,,0.00,WeatherDisplay:10.37,2013-07-19 03:44:00,
2013-07-18 23:50:00,77.2,72.7,29.92,SE,132,0.4,1.2,86,0.00,SCT,,0.00,WeatherDisplay:10.37,2013-07-19 03:50:00,
2013-07-18 23:55:00,77.2,72.7,29.92,ESE,104,0.0,1.2,86,0.00,SCT,,0.00,WeatherDisplay:10.37,2013-07-19 03:55:00,